Time;durP1;ratioP1;P1;durP2;ratioP2;P2;SDS_P1;SDS_P2;PMS_P1;PMS_P2;Temp;Humidity;BMP_temperature;BMP_pressure;BME280_temperature;BME280_humidity;BME280_pressure;Samples;Min_cycle;Max_cycle;Signal;HPM_P1;HPM_P2
2024/02/14 00:08:50;;;;;;;1.88;0.75;;;0.10;99.90;;;;;;20511050;28;20163;-40
2024/02/14 00:18:52;;;;;;;2.13;1.08;;;0.20;99.90;;;;;;20529616;28;20136;-40
2024/02/14 00:28:56;;;;;;;1.52;0.60;;;0.20;99.90;;;;;;20530996;28;20184;-40
2024/02/14 00:38:58;;;;;;;1.73;1.10;;;0.40;99.90;;;;;;20524707;28;20132;-40
2024/02/14 00:49:00;;;;;;;2.30;1.20;;;0.20;99.90;;;;;;20536824;28;20410;-40
2024/02/14 00:59:02;;;;;;;1.85;1.08;;;0.20;99.90;;;;;;20540845;28;21867;-42
2024/02/14 01:09:04;;;;;;;1.92;1.15;;;0.30;99.90;;;;;;20537506;28;20126;-40
2024/02/14 01:19:05;;;;;;;2.22;1.23;;;0.30;99.90;;;;;;20541331;28;20164;-41
2024/02/14 01:29:07;;;;;;;1.95;1.00;;;0.40;99.90;;;;;;20540739;28;20094;-39
2024/02/14 01:39:11;;;;;;;2.47;1.10;;;0.50;99.90;;;;;;20542516;28;20183;-41
2024/02/14 01:49:16;;;;;;;1.75;1.00;;;0.60;99.90;;;;;;20538818;28;21335;-39
2024/02/14 01:59:19;;;;;;;1.85;0.88;;;0.60;99.90;;;;;;20534396;28;20136;-40
2024/02/14 02:09:22;;;;;;;2.40;0.93;;;0.80;99.90;;;;;;20531760;28;20041;-40
2024/02/14 02:19:24;;;;;;;2.22;0.80;;;1.00;99.90;;;;;;20533132;28;20144;-40
2024/02/14 02:29:46;;;;;;;2.97;0.68;;;1.10;99.90;;;;;;20532296;28;20183;-40
2024/02/14 02:39:47;;;;;;;1.25;0.70;;;1.10;99.90;;;;;;20435914;28;20939;-40
2024/02/14 02:50:09;;;;;;;1.48;0.63;;;1.10;99.90;;;;;;20421163;28;20046;-40
2024/02/14 03:00:31;;;;;;;1.15;0.70;;;1.10;99.90;;;;;;20436678;28;20135;-40
2024/02/14 03:10:46;;;;;;;1.40;0.70;;;1.10;99.90;;;;;;20455232;28;20152;-41
2024/02/14 03:21:08;;;;;;;1.23;0.60;;;1.20;99.90;;;;;;20512481;28;21613;-40
2024/02/14 03:31:15;;;;;;;1.15;0.55;;;1.50;99.90;;;;;;20529971;28;20122;-40
2024/02/14 03:41:17;;;;;;;0.70;0.38;;;1.70;99.90;;;;;;20526928;28;21240;-40
2024/02/14 03:51:19;;;;;;;1.85;0.47;;;1.50;99.90;;;;;;20526911;28;21260;-40
2024/02/14 04:01:21;;;;;;;1.45;0.50;;;1.40;99.90;;;;;;20508769;28;20160;-40
2024/02/14 04:11:26;;;;;;;1.40;0.60;;;1.10;99.90;;;;;;20508072;28;20834;-40
2024/02/14 04:21:28;;;;;;;2.20;0.60;;;1.00;99.90;;;;;;20537071;28;20172;-39
2024/02/14 04:31:31;;;;;;;2.58;0.85;;;0.80;99.90;;;;;;20544651;28;20319;-40
2024/02/14 04:41:38;;;;;;;1.50;0.70;;;0.60;99.90;;;;;;20540933;28;20143;-40
2024/02/14 04:51:41;;;;;;;3.75;1.30;;;0.50;99.90;;;;;;20542347;28;20786;-40
2024/02/14 05:01:44;;;;;;;2.97;1.92;;;0.30;99.90;;;;;;20540553;28;20094;-39
2024/02/14 05:11:48;;;;;;;4.40;2.28;;;0.10;99.90;;;;;;20541327;28;20176;-40
2024/02/14 05:21:50;;;;;;;5.10;3.00;;;-0.10;99.90;;;;;;20538628;28;20176;-40
2024/02/14 05:31:55;;;;;;;4.72;2.33;;;-0.10;99.90;;;;;;20539497;28;20277;-39
2024/02/14 05:41:57;;;;;;;5.30;2.95;;;-0.20;99.90;;;;;;20539284;28;20077;-40
2024/02/14 05:51:58;;;;;;;4.55;2.70;;;-0.30;99.90;;;;;;20534412;28;20262;-40
2024/02/14 06:02:02;;;;;;;3.67;2.50;;;-0.30;99.90;;;;;;20533369;28;20064;-40
2024/02/14 06:12:07;;;;;;;5.18;2.80;;;-0.30;99.90;;;;;;20537403;28;20148;-39
2024/02/14 06:22:10;;;;;;;4.57;2.90;;;-0.30;99.90;;;;;;20534034;28;20562;-39
2024/02/14 06:32:13;;;;;;;6.70;2.40;;;-0.30;99.90;;;;;;20513812;28;20250;-39
2024/02/14 06:42:17;;;;;;;4.43;2.53;;;-0.20;99.90;;;;;;20523262;28;20164;-39
2024/02/14 06:52:19;;;;;;;2.97;1.70;;;-0.20;99.90;;;;;;20531190;28;20156;-40
2024/02/14 07:02:21;;;;;;;3.38;1.65;;;0.00;99.90;;;;;;20531353;28;20144;-40
2024/02/14 07:12:23;;;;;;;2.35;1.58;;;0.00;99.90;;;;;;20526767;28;20293;-40
2024/02/14 07:22:25;;;;;;;1.50;0.95;;;0.10;99.90;;;;;;20524400;28;20172;-40
2024/02/14 07:32:27;;;;;;;2.28;0.82;;;0.20;99.90;;;;;;20524149;28;21790;-40
2024/02/14 07:42:29;;;;;;;2.78;1.20;;;0.60;99.90;;;;;;20525522;28;20713;-40
2024/02/14 07:52:31;;;;;;;1.35;0.70;;;1.20;99.90;;;;;;20524648;28;20142;-42
2024/02/14 08:02:33;;;;;;;0.60;0.40;;;2.00;99.90;;;;;;20552097;28;20761;-43
2024/02/14 08:12:35;;;;;;;1.83;0.32;;;3.00;99.90;;;;;;20552921;28;20670;-44
2024/02/14 08:22:37;;;;;;;0.55;0.30;;;4.30;99.90;;;;;;20554110;28;20152;-41
2024/02/14 08:32:39;;;;;;;2.42;0.40;;;5.30;99.20;;;;;;20295704;28;20149;-41
2024/02/14 08:42:41;;;;;;;1.33;0.57;;;6.30;97.70;;;;;;20292531;28;20149;-43
2024/02/14 08:52:43;;;;;;;1.20;0.47;;;7.20;95.70;;;;;;20295695;28;20809;-42
2024/02/14 09:02:46;;;;;;;1.27;0.50;;;7.60;94.10;;;;;;20309680;28;20115;-41
2024/02/14 09:12:50;;;;;;;0.85;0.47;;;8.30;93.50;;;;;;20373512;28;20800;-41
2024/02/14 09:22:53;;;;;;;1.33;0.52;;;8.80;92.30;;;;;;20377794;28;20125;-41
2024/02/14 09:32:55;;;;;;;1.45;0.60;;;9.00;90.80;;;;;;20372559;28;20165;-41
2024/02/14 09:42:59;;;;;;;2.28;0.57;;;9.40;91.70;;;;;;20375942;28;20049;-41
2024/02/14 09:53:03;;;;;;;1.77;0.70;;;9.90;90.90;;;;;;20525970;28;20045;-40
2024/02/14 10:03:06;;;;;;;1.55;0.93;;;10.40;89.60;;;;;;20535309;28;20128;-41
2024/02/14 10:13:08;;;;;;;1.92;0.70;;;10.50;90.00;;;;;;20512930;28;20777;-42
2024/02/14 10:23:12;;;;;;;1.25;0.65;;;10.70;89.60;;;;;;20533211;28;20239;-40
2024/02/14 10:33:15;;;;;;;1.25;0.75;;;11.00;89.50;;;;;;20534088;28;20243;-41
2024/02/14 10:43:17;;;;;;;3.08;0.93;;;11.30;88.10;;;;;;20530341;28;20251;-41
2024/02/14 10:53:20;;;;;;;1.77;0.90;;;11.40;84.90;;;;;;20526924;28;20116;-42
2024/02/14 11:03:22;;;;;;;1.92;1.20;;;11.70;88.70;;;;;;20522733;28;20322;-43
2024/02/14 11:13:30;;;;;;;1.58;1.00;;;12.10;88.90;;;;;;20529497;28;20187;-42
2024/02/14 11:23:32;;;;;;;3.80;1.33;;;12.60;83.40;;;;;;20530703;28;20120;-43
2024/02/14 11:33:34;;;;;;;1.55;1.05;;;13.30;84.50;;;;;;20529191;28;20160;-41
2024/02/14 11:43:39;;;;;;;1.63;1.08;;;12.70;84.30;;;;;;20524783;28;20201;-42
2024/02/14 11:53:41;;;;;;;1.00;0.80;;;12.50;87.00;;;;;;20526017;28;20045;-41
2024/02/14 12:03:44;;;;;;;2.10;1.17;;;12.10;86.70;;;;;;20530499;28;20160;-42
2024/02/14 12:13:50;;;;;;;2.00;1.30;;;12.00;88.50;;;;;;20527886;28;21656;-43
2024/02/14 12:23:58;;;;;;;3.35;1.17;;;12.10;88.10;;;;;;20527889;28;21291;-42
2024/02/14 12:34:02;;;;;;;2.63;1.23;;;11.70;87.10;;;;;;20524767;28;20201;-41
2024/02/14 12:44:04;;;;;;;1.70;1.30;;;11.20;89.30;;;;;;20514744;28;20451;-42
2024/02/14 12:54:09;;;;;;;3.10;1.60;;;11.30;85.30;;;;;;20520446;28;20128;-46
2024/02/14 13:04:11;;;;;;;3.58;1.30;;;11.70;88.80;;;;;;20539663;28;20152;-44
2024/02/14 13:14:14;;;;;;;1.50;1.00;;;12.50;90.50;;;;;;20538166;28;20116;-42
2024/02/14 13:24:16;;;;;;;3.53;1.00;;;12.60;86.80;;;;;;20535883;28;20664;-42
2024/02/14 13:34:21;;;;;;;30.65;3.15;;;12.50;84.00;;;;;;20534200;28;20172;-42
2024/02/14 13:44:24;;;;;;;2.88;1.40;;;12.10;84.60;;;;;;20533471;28;20180;-44
2024/02/14 13:54:26;;;;;;;3.60;1.17;;;11.50;86.40;;;;;;20538471;28;20108;-41
2024/02/14 14:04:29;;;;;;;3.20;1.73;;;10.90;86.00;;;;;;20534982;28;20862;-41
2024/02/14 14:14:31;;;;;;;6.13;3.13;;;10.20;90.70;;;;;;20509248;28;20124;-40
2024/02/14 14:24:33;;;;;;;7.88;3.65;;;9.80;92.00;;;;;;20535335;28;20124;-41
2024/02/14 14:34:35;;;;;;;12.00;4.43;;;9.10;92.60;;;;;;20539490;28;20073;-41
2024/02/14 14:44:37;;;;;;;7.65;4.18;;;8.60;93.60;;;;;;20533254;28;20890;-40
2024/02/14 14:54:38;;;;;;;6.55;4.10;;;8.40;95.00;;;;;;20534206;28;20207;-40
2024/02/14 15:04:44;;;;;;;8.27;4.60;;;7.90;95.40;;;;;;20529267;28;20619;-40
2024/02/14 15:14:46;;;;;;;9.00;4.90;;;7.80;96.70;;;;;;20533090;28;20219;-40
2024/02/14 15:24:48;;;;;;;10.57;5.53;;;7.60;97.10;;;;;;20530834;28;20163;-40
2024/02/14 15:34:51;;;;;;;7.43;4.13;;;7.40;97.60;;;;;;20530593;28;21785;-40
2024/02/14 15:44:56;;;;;;;0.82;0.40;;;7.20;97.10;;;;;;20528460;28;20132;-40
2024/02/14 15:54:58;;;;;;;0.65;0.20;;;6.70;94.50;;;;;;20525610;28;20176;-40
2024/02/14 16:05:02;;;;;;;0.32;0.20;;;6.10;93.60;;;;;;20527303;28;20143;-40
2024/02/14 16:15:05;;;;;;;1.65;0.90;;;5.50;94.30;;;;;;20279812;28;20101;-40
2024/02/14 16:25:08;;;;;;;0.55;0.10;;;5.00;97.30;;;;;;20272041;28;20051;-40
2024/02/14 16:35:10;;;;;;;28.88;2.35;;;4.30;96.50;;;;;;20282179;28;20173;-39
2024/02/14 16:45:15;;;;;;;0.50;0.10;;;4.10;94.80;;;;;;20488913;28;20053;-39
2024/02/14 16:55:17;;;;;;;1.85;0.20;;;4.00;92.90;;;;;;20542074;28;20128;-47
2024/02/14 17:05:21;;;;;;;0.30;0.10;;;4.10;93.30;;;;;;20538883;28;20148;-39
2024/02/14 17:15:23;;;;;;;0.57;0.15;;;3.80;93.50;;;;;;20543444;28;20745;-42
2024/02/14 17:25:25;;;;;;;0.73;0.20;;;3.50;93.00;;;;;;20523677;28;20176;-39
2024/02/14 17:35:27;;;;;;;0.40;0.10;;;3.50;93.40;;;;;;20540936;28;20120;-39
2024/02/14 17:45:28;;;;;;;0.57;0.40;;;3.60;93.10;;;;;;20540480;28;20179;-39
2024/02/14 17:55:30;;;;;;;0.38;0.25;;;3.70;92.70;;;;;;20537622;28;20132;-40
2024/02/14 18:05:32;;;;;;;0.20;0.10;;;3.50;93.00;;;;;;20540343;28;20239;-42
2024/02/14 18:15:34;;;;;;;0.40;0.10;;;3.30;93.10;;;;;;20536458;28;20120;-41
2024/02/14 18:25:36;;;;;;;0.28;0.10;;;3.20;93.10;;;;;;20443414;28;20125;-40
2024/02/14 18:35:39;;;;;;;0.55;0.20;;;3.40;93.00;;;;;;20446542;28;20169;-39
2024/02/14 18:45:41;;;;;;;0.20;0.10;;;3.60;93.20;;;;;;20430105;28;20128;-40
2024/02/14 18:55:43;;;;;;;1.33;0.20;;;3.50;93.60;;;;;;20446768;28;20331;-39
2024/02/14 19:05:44;;;;;;;0.43;0.10;;;3.20;94.20;;;;;;20458194;28;21677;-39
2024/02/14 19:15:46;;;;;;;0.77;0.35;;;3.10;94.80;;;;;;20450613;28;20121;-40
2024/02/14 19:25:53;;;;;;;0.47;0.10;;;3.00;94.40;;;;;;20451909;28;20704;-40
2024/02/14 19:35:55;;;;;;;1.30;0.20;;;3.10;93.50;;;;;;20453177;28;20163;-41
2024/02/14 19:45:57;;;;;;;0.77;0.10;;;3.20;93.50;;;;;;20480343;28;21236;-39
2024/02/14 19:56:00;;;;;;;0.95;0.10;;;3.10;93.60;;;;;;20533182;28;21169;-41
2024/02/14 20:06:04;;;;;;;0.50;0.10;;;3.00;92.70;;;;;;20528106;28;20053;-40
2024/02/14 20:16:07;;;;;;;0.40;0.10;;;2.70;93.50;;;;;;20533612;28;20167;-40
2024/02/14 20:26:12;;;;;;;0.15;0.10;;;2.60;93.40;;;;;;20533064;28;20160;-39
2024/02/14 20:36:14;;;;;;;0.30;0.10;;;2.60;93.20;;;;;;20509799;28;20136;-40
2024/02/14 20:46:18;;;;;;;0.45;0.08;;;3.20;92.20;;;;;;20527753;28;20238;-40
2024/02/14 20:56:22;;;;;;;0.30;0.13;;;2.80;92.50;;;;;;20527809;28;20160;-39
2024/02/14 21:06:27;;;;;;;0.38;0.00;;;2.60;92.80;;;;;;20519243;28;20242;-40
2024/02/14 21:16:30;;;;;;;0.20;0.10;;;2.50;93.10;;;;;;20542624;28;21287;-41
2024/02/14 21:26:31;;;;;;;0.15;0.05;;;2.40;93.30;;;;;;20539653;28;21246;-39
2024/02/14 21:36:36;;;;;;;0.20;0.00;;;2.40;92.80;;;;;;20537764;28;20124;-40
2024/02/14 21:46:39;;;;;;;0.30;0.10;;;2.50;92.90;;;;;;20527577;28;20845;-40
2024/02/14 21:56:41;;;;;;;1.08;0.05;;;2.60;92.10;;;;;;20442333;28;20142;-40
2024/02/14 22:06:43;;;;;;;0.20;0.10;;;2.90;92.40;;;;;;20438976;28;20144;-39
2024/02/14 22:16:45;;;;;;;0.65;0.10;;;2.70;92.20;;;;;;20442481;28;20140;-40
2024/02/14 22:26:47;;;;;;;0.70;0.10;;;2.70;92.40;;;;;;20454024;28;20664;-40
2024/02/14 22:36:49;;;;;;;1.85;0.10;;;2.70;92.90;;;;;;20516891;28;20077;-40
2024/02/14 22:46:53;;;;;;;0.52;0.20;;;2.80;92.60;;;;;;20533440;28;21844;-40
2024/02/14 22:56:55;;;;;;;0.17;0.10;;;2.90;92.20;;;;;;20534551;28;20120;-40
2024/02/14 23:06:59;;;;;;;0.32;0.00;;;3.30;90.90;;;;;;20531249;28;20156;-40
2024/02/14 23:17:03;;;;;;;0.40;0.10;;;3.30;91.20;;;;;;20535397;28;20469;-39
2024/02/14 23:27:05;;;;;;;2.00;0.20;;;3.00;90.70;;;;;;20511107;28;20072;-40
2024/02/14 23:37:07;;;;;;;0.30;0.15;;;2.80;90.00;;;;;;20531153;28;20163;-42
2024/02/14 23:47:09;;;;;;;0.10;0.00;;;3.00;89.50;;;;;;20532312;28;20084;-40
2024/02/14 23:57:15;;;;;;;0.57;0.20;;;2.80;90.70;;;;;;20509058;28;20133;-40
